createdAt,value
2023-03-03T00:00:03.492Z,98345.31
2023-03-03T00:02:29.938Z,98345.34
2023-03-03T00:04:56.288Z,98347.84
2023-03-03T00:07:22.694Z,98339.91
2023-03-03T00:09:49.212Z,98337.91
2023-03-03T00:12:16.328Z,98336.91
2023-03-03T00:14:42.736Z,98348.13
2023-03-03T00:17:09.147Z,98347.38
2023-03-03T00:19:35.425Z,98352.28
2023-03-03T00:22:01.968Z,98351.31
2023-03-03T00:24:28.263Z,98349.28
2023-03-03T00:26:54.653Z,98353.41
2023-03-03T00:29:24.298Z,98355.06
2023-03-03T00:31:51.293Z,98349.56
2023-03-03T00:34:19.682Z,98355.28
2023-03-03T00:36:55.183Z,98351.44
2023-03-03T00:39:25.077Z,98340.03
2023-03-03T00:41:52.977Z,98340.66
2023-03-03T00:44:19.278Z,98334.34
2023-03-03T00:46:47.413Z,98339.25
2023-03-03T00:49:13.740Z,98346.00
2023-03-03T00:51:41.249Z,98339.47
2023-03-03T00:54:08.956Z,98351.75
2023-03-03T00:56:43.049Z,98358.69
2023-03-03T00:59:16.905Z,98347.69
2023-03-03T01:01:45.357Z,98340.34
2023-03-03T01:04:24.219Z,98337.31
2023-03-03T01:06:53.406Z,98342.22
2023-03-03T01:09:19.867Z,98333.84
2023-03-03T01:11:52.828Z,98335.28
2023-03-03T01:14:37.996Z,98348.94
2023-03-03T01:17:17.315Z,98353.00
2023-03-03T01:22:34.286Z,98352.19
2023-03-03T01:25:09.031Z,98345.69
2023-03-03T01:27:44.714Z,98340.78
2023-03-03T01:33:14.639Z,98336.91
2023-03-03T01:35:48.924Z,98334.69
2023-03-03T01:38:21.109Z,98335.91
2023-03-03T01:40:47.386Z,98329.38
2023-03-03T01:43:14.739Z,98327.16
2023-03-03T01:45:42.371Z,98329.41
2023-03-03T01:48:08.631Z,98327.34
2023-03-03T01:50:35.016Z,98321.44
2023-03-03T01:55:53.106Z,98319.81
2023-03-03T01:58:23.631Z,98316.75
2023-03-03T02:00:53.453Z,98317.16
2023-03-03T02:03:25.511Z,98316.75
2023-03-03T02:06:00.121Z,98326.94
2023-03-03T02:08:27.084Z,98327.31
2023-03-03T02:11:05.662Z,98328.78
2023-03-03T02:13:35.731Z,98323.06
2023-03-03T02:16:04.271Z,98328.72
2023-03-03T02:18:34.855Z,98312.03
2023-03-03T02:21:03.937Z,98314.66
2023-03-03T02:23:30.588Z,98316.91
2023-03-03T02:25:58.837Z,98325.25
2023-03-03T02:28:27.040Z,98331.97
2023-03-03T02:30:57.575Z,98340.31
2023-03-03T02:33:23.870Z,98350.47
2023-03-03T02:35:58.231Z,98346.41
2023-03-03T02:38:27.241Z,98345.78
2023-03-03T02:40:54.693Z,98348.00
2023-03-03T02:43:32.851Z,98350.25
2023-03-03T02:46:04.704Z,98350.63
2023-03-03T02:48:31.115Z,98349.16
2023-03-03T02:51:07.751Z,98339.78
2023-03-03T02:53:34.250Z,98349.94
2023-03-03T02:56:05.661Z,98351.16
2023-03-03T02:58:34.262Z,98349.94
2023-03-03T03:01:01.559Z,98352.97
2023-03-03T03:03:28.369Z,98352.34
2023-03-03T03:05:56.830Z,98352.75
2023-03-03T03:08:26.882Z,98356.59
2023-03-03T03:10:55.236Z,98339.47
2023-03-03T03:13:26.733Z,98349.47
2023-03-03T03:15:53.047Z,98355.94
2023-03-03T03:18:32.338Z,98344.94
2023-03-03T03:20:59.993Z,98346.97
2023-03-03T03:23:38.172Z,98345.53
2023-03-03T03:26:13.559Z,98348.56
2023-03-03T03:28:42.168Z,98341.84
2023-03-03T03:31:08.571Z,98341.22
2023-03-03T03:33:36.231Z,98347.72
2023-03-03T03:36:02.731Z,98348.09
2023-03-03T03:38:29.056Z,98353.78
2023-03-03T03:40:55.405Z,98367.19
2023-03-03T03:43:34.363Z,98358.66
2023-03-03T03:46:00.708Z,98360.84
2023-03-03T03:48:38.818Z,98359.41
2023-03-03T03:53:55.561Z,98362.66
2023-03-03T03:56:29.303Z,98364.66
2023-03-03T04:01:41.400Z,98360.16
2023-03-03T04:04:07.793Z,98356.88
2023-03-03T04:06:34.166Z,98357.88
2023-03-03T04:09:00.527Z,98345.22
2023-03-03T04:11:26.802Z,98363.56
2023-03-03T04:13:53.101Z,98361.31
2023-03-03T04:16:19.510Z,98360.47
2023-03-03T04:18:46.742Z,98358.03
2023-03-03T04:21:14.913Z,98359.22
2023-03-03T04:23:44.014Z,98356.00
2023-03-03T04:26:14.206Z,98358.00
2023-03-03T04:28:45.281Z,98353.09
2023-03-03T04:31:11.715Z,98355.91
2023-03-03T04:33:47.220Z,98346.56
2023-03-03T04:36:13.689Z,98362.78
2023-03-03T04:38:41.792Z,98361.34
2023-03-03T04:41:08.165Z,98360.72
2023-03-03T04:43:41.201Z,98358.47
2023-03-03T04:46:07.839Z,98360.47
2023-03-03T04:48:34.108Z,98365.13
2023-03-03T04:51:01.008Z,98365.31
2023-03-03T04:53:34.177Z,98366.50
2023-03-03T04:56:00.650Z,98369.53
2023-03-03T04:58:30.402Z,98373.19
2023-03-03T05:00:58.402Z,98373.56
2023-03-03T05:06:32.175Z,98363.38
2023-03-03T05:08:59.247Z,98373.13
2023-03-03T05:11:26.582Z,98373.50
2023-03-03T05:14:02.838Z,98378.94
2023-03-03T05:16:29.437Z,98375.66
2023-03-03T05:18:59.024Z,98376.69
2023-03-03T05:21:27.838Z,98383.97
2023-03-03T05:23:54.927Z,98385.16
2023-03-03T05:26:28.441Z,98393.25
2023-03-03T05:28:54.801Z,98392.00
2023-03-03T05:31:21.589Z,98387.09
2023-03-03T05:33:48.196Z,98401.31
2023-03-03T05:36:15.104Z,98394.56
2023-03-03T05:38:43.709Z,98397.41
2023-03-03T05:41:10.400Z,98397.41
2023-03-03T05:43:36.924Z,98389.88
2023-03-03T05:46:05.320Z,98388.22
2023-03-03T05:48:44.881Z,98380.69
2023-03-03T05:51:12.104Z,98387.97
2023-03-03T05:53:40.879Z,98392.59
2023-03-03T05:56:09.949Z,98393.81
2023-03-03T05:58:36.974Z,98399.28
2023-03-03T06:01:03.380Z,98410.81
2023-03-03T06:03:29.725Z,98419.75
2023-03-03T06:05:56.042Z,98417.28
2023-03-03T06:08:22.395Z,98428.03
2023-03-03T06:10:48.744Z,98428.19
2023-03-03T06:13:24.623Z,98424.94
2023-03-03T06:15:52.967Z,98429.78
2023-03-03T06:18:20.672Z,98425.50
2023-03-03T06:20:47.533Z,98424.84
2023-03-03T06:23:17.448Z,98423.22
2023-03-03T06:25:51.815Z,98427.03
2023-03-03T06:28:18.344Z,98435.06
2023-03-03T06:30:44.839Z,98440.75
2023-03-03T06:33:11.465Z,98438.03
2023-03-03T06:35:38.342Z,98428.41
2023-03-03T06:38:04.827Z,98432.50
2023-03-03T06:40:31.221Z,98422.53
2023-03-03T06:42:57.630Z,98420.19
2023-03-03T06:45:23.904Z,98416.00
2023-03-03T06:47:50.194Z,98420.69
2023-03-03T06:50:16.562Z,98427.03
2023-03-03T06:52:42.968Z,98426.00
2023-03-03T06:55:09.243Z,98424.91
2023-03-03T06:57:38.477Z,98434.88
2023-03-03T07:00:19.358Z,98439.72
2023-03-03T07:02:50.812Z,98436.19
2023-03-03T07:05:18.352Z,98440.19
2023-03-03T07:07:47.188Z,98432.94
2023-03-03T07:10:16.686Z,98441.88
2023-03-03T07:12:43.411Z,98440.97
2023-03-03T07:15:15.980Z,98445.00
2023-03-03T07:17:43.999Z,98443.31
2023-03-03T07:20:18.782Z,98445.13
2023-03-03T07:22:45.162Z,98444.84
2023-03-03T07:25:11.733Z,98453.72
2023-03-03T07:27:42.891Z,98448.78
2023-03-03T07:30:09.513Z,98464.63
2023-03-03T07:32:35.932Z,98469.84
2023-03-03T07:35:02.321Z,98470.75
2023-03-03T07:37:28.661Z,98468.16
2023-03-03T07:40:00.075Z,98477.03
2023-03-03T07:42:32.387Z,98474.88
2023-03-03T07:44:59.228Z,98490.59
2023-03-03T07:47:27.250Z,98483.75
2023-03-03T07:49:56.886Z,98494.00
2023-03-03T07:52:26.417Z,98499.31
2023-03-03T07:54:52.780Z,98494.00
2023-03-03T07:57:19.132Z,98495.84
2023-03-03T07:59:45.775Z,98490.28
2023-03-03T08:02:12.345Z,98494.59
2023-03-03T08:04:38.895Z,98496.81
2023-03-03T08:07:05.340Z,98493.31
2023-03-03T08:09:31.706Z,98490.88
2023-03-03T08:11:58.008Z,98495.59
2023-03-03T08:14:28.184Z,98489.47
2023-03-03T08:16:54.887Z,98496.66
2023-03-03T08:19:21.193Z,98495.00
2023-03-03T08:21:47.560Z,98500.34
2023-03-03T08:24:13.864Z,98499.56
2023-03-03T08:26:40.165Z,98501.63
2023-03-03T08:29:06.460Z,98504.50
2023-03-03T08:31:41.175Z,98498.34
2023-03-03T08:34:08.393Z,98501.25
2023-03-03T08:36:35.129Z,98502.25
2023-03-03T08:39:01.590Z,98496.38
2023-03-03T08:41:27.898Z,98500.06
2023-03-03T08:43:54.264Z,98499.47
2023-03-03T08:46:20.657Z,98495.19
2023-03-03T08:48:47.461Z,98505.84
2023-03-03T08:51:13.877Z,98501.75
2023-03-03T08:53:40.208Z,98503.38
2023-03-03T08:56:06.790Z,98502.56
2023-03-03T08:58:35.922Z,98498.28
2023-03-03T09:01:02.619Z,98503.63
2023-03-03T09:03:28.942Z,98497.69
2023-03-03T09:05:55.346Z,98509.75
2023-03-03T09:08:21.846Z,98512.84
2023-03-03T09:10:48.271Z,98508.34
2023-03-03T09:13:14.642Z,98505.09
2023-03-03T09:15:40.975Z,98511.00
2023-03-03T09:18:07.269Z,98511.69
2023-03-03T09:20:33.743Z,98523.59
2023-03-03T09:23:00.133Z,98529.25
2023-03-03T09:25:26.556Z,98532.19
2023-03-03T09:27:52.986Z,98540.03
2023-03-03T09:30:19.317Z,98541.34
2023-03-03T09:32:45.817Z,98547.19
2023-03-03T09:35:12.125Z,98555.09
2023-03-03T09:37:38.411Z,98556.06
2023-03-03T09:40:04.785Z,98567.09
2023-03-03T09:42:31.184Z,98568.69
2023-03-03T09:44:57.562Z,98568.28
2023-03-03T09:47:23.874Z,98571.06
2023-03-03T09:49:50.189Z,98571.22
2023-03-03T09:52:16.594Z,98576.09
2023-03-03T09:54:42.878Z,98574.00
2023-03-03T09:57:09.404Z,98577.72
2023-03-03T09:59:35.685Z,98569.13
2023-03-03T10:02:02.120Z,98577.72
2023-03-03T10:04:28.428Z,98568.66
2023-03-03T10:06:55.153Z,98567.25
2023-03-03T10:09:21.554Z,98567.72
2023-03-03T10:11:47.862Z,98562.25
2023-03-03T10:14:14.247Z,98569.88
2023-03-03T10:16:40.669Z,98571.38
2023-03-03T10:19:07.058Z,98570.22
2023-03-03T10:21:33.361Z,98577.63
2023-03-03T10:23:59.695Z,98578.09
2023-03-03T10:26:38.446Z,98576.44
2023-03-03T10:29:10.511Z,98575.06
2023-03-03T10:31:37.047Z,98569.72
2023-03-03T10:34:03.809Z,98560.28
2023-03-03T10:36:30.655Z,98569.34
2023-03-03T10:38:57.187Z,98564.81
2023-03-03T10:41:23.541Z,98563.41
2023-03-03T10:43:50.000Z,98566.31
2023-03-03T10:46:16.522Z,98569.19
2023-03-03T10:48:43.319Z,98558.97
2023-03-03T10:51:09.937Z,98568.81
2023-03-03T10:53:36.289Z,98568.25
2023-03-03T10:56:02.594Z,98561.28
2023-03-03T10:58:28.909Z,98562.09
2023-03-03T11:00:55.406Z,98569.28
2023-03-03T11:03:22.032Z,98566.38
2023-03-03T11:05:48.308Z,98568.25
2023-03-03T11:08:14.662Z,98569.63
2023-03-03T11:10:41.020Z,98567.56
2023-03-03T11:13:07.301Z,98570.59
2023-03-03T11:15:33.681Z,98574.22
2023-03-03T11:18:00.142Z,98574.34
2023-03-03T11:20:26.782Z,98573.03
2023-03-03T11:22:53.215Z,98574.41
2023-03-03T11:25:19.768Z,98576.50
2023-03-03T11:27:46.110Z,98574.84
2023-03-03T11:30:12.456Z,98575.59
2023-03-03T11:32:38.768Z,98573.41
2023-03-03T11:35:05.319Z,98576.22
2023-03-03T11:37:31.832Z,98571.00
2023-03-03T11:39:58.188Z,98582.28
2023-03-03T11:42:27.567Z,98576.53
2023-03-03T11:44:53.940Z,98572.81
2023-03-03T11:47:20.290Z,98570.72
2023-03-03T11:49:46.557Z,98573.53
2023-03-03T11:52:12.888Z,98581.06
2023-03-03T11:54:39.200Z,98578.41
2023-03-03T11:57:05.596Z,98572.47
2023-03-03T11:59:31.999Z,98562.84
2023-03-03T12:01:58.344Z,98561.22
2023-03-03T12:04:25.990Z,98566.53
2023-03-03T12:06:52.271Z,98555.31
2023-03-03T12:09:18.715Z,98557.16
2023-03-03T12:11:45.032Z,98550.16
2023-03-03T12:14:11.362Z,98544.03
2023-03-03T12:16:38.878Z,98539.97
2023-03-03T12:19:05.233Z,98534.84
2023-03-03T12:21:31.573Z,98536.91
2023-03-03T12:23:58.272Z,98532.03
2023-03-03T12:26:24.664Z,98529.59
2023-03-03T12:28:51.037Z,98533.28
2023-03-03T12:31:17.384Z,98534.09
2023-03-03T12:33:43.787Z,98531.44
2023-03-03T12:36:10.085Z,98529.81
2023-03-03T12:38:36.372Z,98526.09
2023-03-03T12:41:02.709Z,98530.63
2023-03-03T12:43:29.074Z,98523.44
2023-03-03T12:45:55.761Z,98519.75
2023-03-03T12:48:22.044Z,98518.69
2023-03-03T12:50:48.484Z,98516.59
2023-03-03T12:53:14.819Z,98510.03
2023-03-03T12:55:41.326Z,98514.09
2023-03-03T12:58:07.725Z,98508.53
2023-03-03T13:00:34.270Z,98504.59
2023-03-03T13:03:00.703Z,98504.13
2023-03-03T13:05:27.026Z,98504.50
2023-03-03T13:07:53.403Z,98503.19
2023-03-03T13:10:19.747Z,98501.34
2023-03-03T13:12:46.158Z,98497.66
2023-03-03T13:15:15.278Z,98499.03
2023-03-03T13:17:42.352Z,98496.13
2023-03-03T13:20:08.872Z,98495.09
2023-03-03T13:22:35.211Z,98497.78
2023-03-03T13:25:01.721Z,98483.84
2023-03-03T13:27:28.202Z,98495.34
2023-03-03T13:29:54.535Z,98488.13
2023-03-03T13:32:20.806Z,98484.44
2023-03-03T13:34:47.084Z,98486.28
2023-03-03T13:37:13.516Z,98476.66
2023-03-03T13:39:39.804Z,98476.41
2023-03-03T13:42:06.392Z,98478.84
2023-03-03T13:44:32.771Z,98473.63
2023-03-03T13:46:59.055Z,98464.44
2023-03-03T13:49:25.438Z,98471.88
2023-03-03T13:51:51.984Z,98475.59
2023-03-03T13:54:18.361Z,98480.94
2023-03-03T13:56:44.674Z,98468.41
2023-03-03T13:59:11.026Z,98475.59
2023-03-03T14:01:37.337Z,98475.13
2023-03-03T14:04:03.687Z,98475.13
2023-03-03T14:06:30.029Z,98472.22
2023-03-03T14:08:56.345Z,98466.44
2023-03-03T14:11:24.570Z,98471.53
2023-03-03T14:13:53.078Z,98466.22
2023-03-03T14:16:19.500Z,98468.88
2023-03-03T14:18:45.793Z,98466.78
2023-03-03T14:21:12.181Z,98456.66
2023-03-03T14:23:38.503Z,98464.00
2023-03-03T14:26:04.848Z,98456.56
2023-03-03T14:28:31.210Z,98460.03
2023-03-03T14:30:58.727Z,98462.16
2023-03-03T14:33:25.431Z,98462.94
2023-03-03T14:35:51.898Z,98453.56
2023-03-03T14:38:18.405Z,98445.53
2023-03-03T14:40:44.838Z,98453.56
2023-03-03T14:43:11.243Z,98445.31
2023-03-03T14:45:37.639Z,98440.78
2023-03-03T14:48:04.112Z,98437.88
2023-03-03T14:50:30.358Z,98433.91
2023-03-03T14:52:56.629Z,98432.06
2023-03-03T14:55:23.066Z,98431.00
2023-03-03T14:57:49.416Z,98425.66
2023-03-03T15:00:15.755Z,98421.97
2023-03-03T15:02:42.089Z,98420.91
2023-03-03T15:05:08.471Z,98419.63
2023-03-03T15:07:34.925Z,98422.53
2023-03-03T15:10:01.184Z,98414.28
2023-03-03T15:12:27.620Z,98416.16
2023-03-03T15:14:53.904Z,98412.66
2023-03-03T15:17:20.210Z,98403.03
2023-03-03T15:19:46.740Z,98410.47
2023-03-03T15:22:12.992Z,98401.63
2023-03-03T15:24:39.441Z,98400.03
2023-03-03T15:27:05.745Z,98401.88
2023-03-03T15:29:32.092Z,98396.75
2023-03-03T15:31:58.378Z,98403.16
2023-03-03T15:34:24.662Z,98406.88
2023-03-03T15:36:51.078Z,98403.41
2023-03-03T15:39:17.545Z,98407.09
2023-03-03T15:41:44.485Z,98397.47
2023-03-03T15:44:10.875Z,98396.06
2023-03-03T15:46:37.324Z,98400.03
2023-03-03T15:49:03.774Z,98393.28
2023-03-03T15:51:30.469Z,98394.59
2023-03-03T15:53:56.803Z,98392.94
2023-03-03T15:56:23.267Z,98391.59
2023-03-03T15:58:49.891Z,98386.44
2023-03-03T16:01:16.556Z,98385.66
2023-03-03T16:03:42.906Z,98388.31
2023-03-03T16:06:09.443Z,98381.59
2023-03-03T16:08:35.748Z,98379.16
2023-03-03T16:11:02.075Z,98379.97
2023-03-03T16:13:28.499Z,98377.75
2023-03-03T16:15:54.990Z,98378.81
2023-03-03T16:18:21.398Z,98386.81
2023-03-03T16:20:47.691Z,98379.28
2023-03-03T16:23:14.064Z,98380.31
2023-03-03T16:25:40.399Z,98377.06
2023-03-03T16:28:06.665Z,98378.09
2023-03-03T16:30:33.180Z,98373.25
2023-03-03T16:32:59.499Z,98375.31
2023-03-03T16:35:25.929Z,98379.84
2023-03-03T16:37:52.327Z,98379.25
2023-03-03T16:40:18.698Z,98377.84
2023-03-03T16:42:44.946Z,98369.25
2023-03-03T16:45:11.239Z,98387.34
2023-03-03T16:47:37.620Z,98388.66
2023-03-03T16:50:03.902Z,98386.19
2023-03-03T16:52:30.414Z,98387.25
2023-03-03T16:54:56.781Z,98392.81
2023-03-03T16:57:23.060Z,98385.03
2023-03-03T16:59:49.395Z,98390.97
2023-03-03T17:02:15.730Z,98393.63
2023-03-03T17:04:42.101Z,98399.66
2023-03-03T17:07:08.432Z,98401.53
2023-03-03T17:09:34.804Z,98400.63
2023-03-03T17:12:01.145Z,98412.00
2023-03-03T17:14:27.469Z,98411.06
2023-03-03T17:16:56.495Z,98417.31
2023-03-03T17:19:22.853Z,98422.78
2023-03-03T17:21:49.517Z,98422.66
2023-03-03T17:24:15.961Z,98418.47
2023-03-03T17:26:42.317Z,98415.91
2023-03-03T17:29:08.650Z,98420.31
2023-03-03T17:31:35.402Z,98420.91
2023-03-03T17:34:01.769Z,98414.16
2023-03-03T17:36:28.089Z,98415.47
2023-03-03T17:38:54.531Z,98410.47
2023-03-03T17:41:20.851Z,98417.78
2023-03-03T17:43:47.205Z,98425.69
2023-03-03T17:46:13.546Z,98423.84
2023-03-03T17:48:40.323Z,98425.69
2023-03-03T17:51:06.607Z,98433.94
2023-03-03T17:53:32.920Z,98426.63
2023-03-03T17:55:59.252Z,98428.13
2023-03-03T17:58:25.629Z,98431.47
2023-03-03T18:00:52.152Z,98432.78
2023-03-03T18:03:18.591Z,98425.69
2023-03-03T18:05:44.941Z,98424.06
2023-03-03T18:08:11.274Z,98420.81
2023-03-03T18:10:37.743Z,98421.88
2023-03-03T18:13:04.086Z,98419.19
2023-03-03T18:15:30.489Z,98427.09
2023-03-03T18:17:56.976Z,98426.28
2023-03-03T18:20:23.273Z,98429.41
2023-03-03T18:22:49.611Z,98431.25
2023-03-03T18:25:15.993Z,98440.53
2023-03-03T18:27:42.263Z,98440.38
2023-03-03T18:30:08.720Z,98445.41
2023-03-03T18:32:35.049Z,98450.59
2023-03-03T18:35:01.351Z,98450.22
2023-03-03T18:37:27.970Z,98450.94
2023-03-03T18:39:54.294Z,98454.88
2023-03-03T18:42:20.570Z,98452.28
2023-03-03T18:44:46.917Z,98452.63
2023-03-03T18:47:13.246Z,98449.38
2023-03-03T18:49:39.620Z,98456.41
2023-03-03T18:52:05.898Z,98449.31
2023-03-03T18:54:32.178Z,98446.72
2023-03-03T18:56:58.559Z,98455.91
2023-03-03T18:59:25.049Z,98450.31
2023-03-03T19:01:51.460Z,98458.34
2023-03-03T19:04:18.485Z,98447.63
2023-03-03T19:06:44.774Z,98449.75
2023-03-03T19:09:11.103Z,98448.38
2023-03-03T19:11:39.364Z,98450.13
2023-03-03T19:14:05.838Z,98454.81
2023-03-03T19:19:26.864Z,98443.34
2023-03-03T19:22:10.501Z,98446.97
2023-03-03T19:24:42.448Z,98442.34
2023-03-03T19:27:08.815Z,98444.91
2023-03-03T19:29:35.142Z,98442.00
2023-03-03T19:32:01.497Z,98453.59
2023-03-03T19:34:28.060Z,98452.41
2023-03-03T19:36:54.735Z,98454.47
2023-03-03T19:39:21.094Z,98455.47
2023-03-03T19:41:47.552Z,98456.72
2023-03-03T19:44:14.087Z,98467.03
2023-03-03T19:46:40.558Z,98463.16
2023-03-03T19:49:07.022Z,98461.94
2023-03-03T19:51:33.907Z,98460.75
2023-03-03T19:54:00.445Z,98460.59
2023-03-03T19:56:26.734Z,98460.94
2023-03-03T19:58:53.038Z,98459.69
2023-03-03T20:01:19.494Z,98452.72
2023-03-03T20:03:45.983Z,98465.59
2023-03-03T20:06:12.500Z,98461.38
2023-03-03T20:08:38.922Z,98463.59
2023-03-03T20:11:05.213Z,98456.66
2023-03-03T20:13:31.516Z,98464.81
2023-03-03T20:15:57.938Z,98463.56
2023-03-03T20:18:24.389Z,98462.63
2023-03-03T20:20:50.716Z,98473.16
2023-03-03T20:23:17.039Z,98467.28
2023-03-03T20:25:43.497Z,98464.38
2023-03-03T20:28:09.770Z,98461.47
2023-03-03T20:30:36.043Z,98449.63
2023-03-03T20:33:02.375Z,98462.13
2023-03-03T20:35:29.054Z,98457.09
2023-03-03T20:37:55.828Z,98456.84
2023-03-03T20:40:22.235Z,98456.91
2023-03-03T20:42:49.011Z,98460.22
2023-03-03T20:45:16.347Z,98454.94
2023-03-03T20:47:42.650Z,98460.03
2023-03-03T20:50:08.966Z,98452.00
2023-03-03T20:52:35.198Z,98462.72
2023-03-03T20:55:01.719Z,98448.75
2023-03-03T20:57:28.119Z,98447.94
2023-03-03T20:59:54.526Z,98445.25
2023-03-03T21:02:20.780Z,98442.81
2023-03-03T21:04:47.191Z,98436.09
2023-03-03T21:07:13.709Z,98438.41
2023-03-03T21:09:40.138Z,98434.78
2023-03-03T21:12:06.558Z,98442.63
2023-03-03T21:14:32.965Z,98439.56
2023-03-03T21:16:59.436Z,98432.19
2023-03-03T21:19:26.043Z,98428.88
2023-03-03T21:21:52.526Z,98431.47
2023-03-03T21:24:18.938Z,98424.38
2023-03-03T21:26:45.235Z,98423.50
2023-03-03T21:29:11.687Z,98429.78
2023-03-03T21:31:38.036Z,98421.44
2023-03-03T21:34:04.416Z,98420.88
2023-03-03T21:36:30.998Z,98420.03
2023-03-03T21:38:57.330Z,98428.31
2023-03-03T21:41:23.616Z,98426.63
2023-03-03T21:43:49.917Z,98414.44
2023-03-03T21:46:16.465Z,98416.13
2023-03-03T21:48:42.848Z,98415.38
2023-03-03T21:51:09.261Z,98415.66
2023-03-03T21:53:35.536Z,98416.53
2023-03-03T21:56:01.957Z,98414.69
2023-03-03T21:58:28.372Z,98405.88
2023-03-03T22:00:54.836Z,98401.94
2023-03-03T22:03:21.379Z,98400.13
2023-03-03T22:05:48.019Z,98396.19
2023-03-03T22:08:14.494Z,98395.94
2023-03-03T22:10:48.070Z,98394.94
2023-03-03T22:13:20.417Z,98400.03
2023-03-03T22:15:47.041Z,98393.66
2023-03-03T22:18:13.392Z,98400.41
2023-03-03T22:20:39.964Z,98399.31
2023-03-03T22:23:06.549Z,98395.59
2023-03-03T22:25:33.089Z,98404.75
2023-03-03T22:27:59.497Z,98402.63
2023-03-03T22:30:25.949Z,98404.03
2023-03-03T22:32:52.333Z,98397.38
2023-03-03T22:35:18.719Z,98402.00
2023-03-03T22:37:45.456Z,98402.31
2023-03-03T22:40:11.815Z,98401.59
2023-03-03T22:42:38.282Z,98406.19
2023-03-03T22:45:05.286Z,98396.44
2023-03-03T22:47:33.476Z,98395.69
2023-03-03T22:49:59.716Z,98400.91
2023-03-03T22:52:25.938Z,98390.34
2023-03-03T22:54:52.288Z,98396.78
2023-03-03T22:57:18.521Z,98391.53
2023-03-03T22:59:44.770Z,98391.59
2023-03-03T23:02:11.133Z,98394.13
2023-03-03T23:04:37.360Z,98387.03
2023-03-03T23:07:03.806Z,98383.63
2023-03-03T23:09:30.035Z,98391.47
2023-03-03T23:11:56.226Z,98388.06
2023-03-03T23:14:22.422Z,98386.28
2023-03-03T23:16:48.633Z,98382.66
2023-03-03T23:19:14.989Z,98383.56
2023-03-03T23:21:41.273Z,98379.09
2023-03-03T23:24:07.508Z,98377.94
2023-03-03T23:26:33.704Z,98381.25
2023-03-03T23:29:00.982Z,98381.88
2023-03-03T23:31:27.288Z,98380.91
2023-03-03T23:33:54.226Z,98380.75
2023-03-03T23:36:20.427Z,98386.94
2023-03-03T23:38:46.721Z,98386.78
2023-03-03T23:41:12.915Z,98382.34
2023-03-03T23:43:39.182Z,98381.13
2023-03-03T23:46:05.426Z,98378.31
2023-03-03T23:48:31.650Z,98375.50
2023-03-03T23:50:58.031Z,98375.34
2023-03-03T23:53:24.423Z,98373.31
2023-03-03T23:55:50.769Z,98371.63
2023-03-03T23:58:17.030Z,98370.56
